岩国飛行場の過去48時間の天気

岩国飛行場 (Iwakuni)

現在時刻: 9/19 07:13 JST (9/18 22:13 UTC) 以下の時間は現地時間です。

過去48時間のMETAR気象情報
時間 風向 風速(m/s) 視程 気温(℃) 湿度(%) 気圧(hPa) 天気現象
19 06:56 西北西 3 10km以上 21.1 76 1013.9
19 05:56 西北西 3 10km以上 20.6 78 1013.5
19 04:56 西北西 3 10km以上 20.6 78 1013.2
RJOI 182156Z 30005KT 10SM SCT060 21/17 A2994 RMK AO2 SLP139 T02110167 $
RJOI 182056Z COR 29006KT 9999 SCT050 21/17 A2993 RMK SLP135 T02060167 54000
RJOI 181956Z 30006KT 10SM BKN055 21/17 A2992 RMK AO2 SLP132 T02060167 $